Plaistow, United Kingdom
Current Conditions -  °F | °C
As of 5:20 AM on Saturday 22 Nov 2014 (Local Time) from EGLC Reporting Station
Rain Showers Rain Showers  
Wind Chill: 52°   Ceiling: 900
Heat Index: 52°   Visibility: 3mi
Dew Point: 52°   Wind: 7mph
Humidity: 100%   Direction: 110°ESE
Pressure: 29.85"   Gusts: NA
Location:  51.53°N, 0.02°E
Report Text: EGLC 220520Z AUTO 11006KT 4900 -SHRA BKN009/// 11/11 Q1011
Loading
Personal Weather Stations






























Interactive Weather Map New forecast layout! Learn more

10-Day Weather Forecast

Advertisements
Track Severe Weather on mobile